Seaspan Chiwan — VRBH3 — position and weather

sailwx.info

Track history (hours):
 
Tides and Currents Weather Stations Pressure Air Temp Water Temp Dewpoint Dewpoint Depression Visibility Wind Speed Wind Dir Waves Ship Positions

Seaspan Chiwan

Last reported at 2018-May-23 10:30 UTC. Time now 2018-May-27 17:45 UTC.
Position N 01°12' E 103°48'.

Date/timePositionNaut miles runAvg speedWind from/ knotsBaromVisibWave heightAir tempDewpointWater temp
2018-May-23 10:30N 01°12' E 103°48'3 6.4
2018-May-23 10:00N 01°15' E 103°47'0 0.8
2018-May-23 09:30N 01°15' E 103°47'0 0.0
2018-May-23 08:51N 01°15' E 103°47'0 0.0
2018-May-23 08:30N 01°15' E 103°47'0 0.0
2018-May-23 08:00N 01°15' E 103°47'0 0.0
2018-May-23 07:30N 01°15' E 103°47'0 0.0
2018-May-23 06:54N 01°15' E 103°47'0 0.0
2018-May-23 06:30N 01°15' E 103°47'0 0.0
2018-May-23 06:00N 01°15' E 103°47'0 0.0
2018-May-23 05:27N 01°15' E 103°47'0 0.0
2018-May-23 04:57N 01°15' E 103°47'0 0.0
2018-May-23 04:30N 01°15' E 103°47'0 0.0
2018-May-23 03:51N 01°15' E 103°47'0 0.0
2018-May-23 03:27N 01°15' E 103°47'0 0.0
2018-May-23 03:00N 01°15' E 103°47'0 0.0
2018-May-23 02:27N 01°15' E 103°47'0 0.0
2018-May-23 02:00N 01°15' E 103°47'0 0.0
2018-May-23 01:30N 01°15' E 103°47'0 0.0
2018-May-23 01:00N 01°15' E 103°47'0 0.0
2018-May-23 00:24N 01°15' E 103°47'0 0.0
2018-May-23 00:00N 01°15' E 103°47'0 0.0
2018-May-22 23:30N 01°15' E 103°47'0 0.0
2018-May-22 22:57N 01°15' E 103°47'0 0.0
2018-May-22 22:30N 01°15' E 103°47'0 0.0
2018-May-22 22:00N 01°15' E 103°47'0 0.0
2018-May-22 21:30N 01°15' E 103°47'0 0.0
2018-May-22 20:54N 01°15' E 103°47'0 0.0
2018-May-22 20:30N 01°15' E 103°47'0 0.0
2018-May-22 20:00N 01°15' E 103°47'0 0.0
2018-May-22 19:27N 01°15' E 103°47'0 0.0
2018-May-22 18:57N 01°15' E 103°47'0 0.0
2018-May-22 18:30N 01°15' E 103°47'0 0.1
2018-May-22 18:00N 01°15' E 103°47'0 1.0
2018-May-22 17:30N 01°15' E 103°48'1 1.1
2018-May-22 16:59N 01°15' E 103°47'3 7.0
2018-May-22 16:30N 01°15' E 103°44'4 8.8
2018-May-22 16:00N 01°12' E 103°40'4 7.5
2018-May-22 15:29N 01°12' E 103°36'5 9.1
2018-May-22 14:55N 01°11' E 103°32'3 6.7
2018-May-22 14:30N 01°10' E 103°29'1 0.6
2018-May-22 13:03N 01°10' E 103°30'0 4.3
2018-May-22 12:59N 01°10' E 103°30'44 1.0
2018-May-20 18:08N 01°37' E 102°55'615.1
2018-May-20 17:42N 01°33' E 103°01'314.8
2018-May-20 17:28N 01°31' E 103°03'714.9
2018-May-20 17:00N 01°26' E 103°09'715.1
2018-May-20 16:30N 01°22' E 103°15'714.5
2018-May-20 16:01N 01°18' E 103°21'713.8
2018-May-20 15:30N 01°14' E 103°26'715.2
2018-May-20 15:00N 01°12' E 103°34'714.2
2018-May-20 14:30N 01°11' E 103°41'612.3
2018-May-20 14:00N 01°10' E 103°47'815.6
2018-May-20 13:30N 01°13' E 103°54'713.6
2018-May-20 13:00N 01°15' E 104°00'816.1
2018-May-20 12:30N 01°16' E 104°08'815.7
2018-May-20 12:00N 01°18' E 104°16'816.5
2018-May-20 11:30N 01°22' E 104°23'915.9
2018-May-20 10:57N 01°28' E 104°30'715.7
2018-May-20 10:29N 01°32' E 104°35'  
2018-May-15 10:24N 22°44' E 116°40'512.7
2018-May-15 10:00N 22°47' E 116°45'1413.6
2018-May-15 08:58N 22°54' E 116°59'714.1
2018-May-15 08:30N 22°56' E 117°05'815.5
2018-May-15 08:00N 22°59' E 117°13'917.3
2018-May-15 07:29N 23°05' E 117°20'817.5
2018-May-15 07:00N 23°11' E 117°27'917.5
2018-May-15 06:30N 23°17' E 117°34'917.7
2018-May-15 06:00N 23°23' E 117°41'917.6
2018-May-15 05:30N 23°28' E 117°49'917.5
2018-May-15 05:00N 23°34' E 117°55'917.3
2018-May-15 04:30N 23°40' E 118°03'917.2
2018-May-15 04:00N 23°46' E 118°09'816.8
2018-May-15 03:30N 23°52' E 118°15'816.7
2018-May-15 03:00N 24°00' E 118°17'816.3
2018-May-15 02:30N 24°08' E 118°18'815.2
2018-May-15 02:00N 24°15' E 118°15'714.9
2018-May-15 01:30N 24°21' E 118°09'612.0
2018-May-15 01:01N 24°25' E 118°05'5 9.7
2018-May-15 00:29N 24°30' E 118°04'0 0.9
2018-May-14 23:59N 24°31' E 118°05'0 0.0
2018-May-14 23:26N 24°31' E 118°05'0 0.0
2018-May-14 22:59N 24°31' E 118°05'0 0.0
2018-May-14 22:29N 24°31' E 118°05'0 0.0
2018-May-14 21:59N 24°31' E 118°05'0 0.0
2018-May-14 21:29N 24°31' E 118°05'0 0.0
2018-May-14 20:59N 24°31' E 118°05'0 0.0
2018-May-14 20:29N 24°31' E 118°05'0 0.0
2018-May-14 19:59N 24°30' E 118°05'0 0.0
2018-May-14 19:29N 24°31' E 118°05'0 0.0
2018-May-14 18:59N 24°31' E 118°05'0 0.0
2018-May-14 18:26N 24°31' E 118°05'0 0.0
2018-May-14 17:59N 24°31' E 118°05'0 0.0
2018-May-14 17:29N 24°31' E 118°05'0 0.0
2018-May-14 16:59N 24°31' E 118°05'0 0.0
2018-May-14 16:29N 24°31' E 118°05'0 0.0
2018-May-14 15:56N 24°30' E 118°05'0 0.1
2018-May-14 15:29N 24°31' E 118°05'0 0.0
2018-May-14 14:59N 24°31' E 118°05'0 0.0
2018-May-14 14:29N 24°31' E 118°05'0 0.0
2018-May-14 13:59N 24°31' E 118°05'0 0.0
2018-May-14 13:29N 24°31' E 118°05'0 0.0
2018-May-14 12:53N 24°30' E 118°05'0 0.0
2018-May-14 12:29N 24°31' E 118°05'0 0.0
2018-May-14 11:53N 24°31' E 118°05'0 0.0
2018-May-14 11:29N 24°31' E 118°05'0 0.0
2018-May-14 10:59N 24°31' E 118°05'0 0.0
2018-May-14 10:29N 24°30' E 118°05'0 0.0
2018-May-14 09:59N 24°31' E 118°05'0 0.0
2018-May-14 09:29N 24°30' E 118°05'0 0.1
2018-May-14 08:59N 24°31' E 118°05'2 3.6
2018-May-14 08:30N 24°29' E 118°04'5 9.1
2018-May-14 08:00N 24°25' E 118°05'510.4
2018-May-14 07:30N 24°21' E 118°09'5 9.6
2018-May-14 07:01N 24°18' E 118°13'612.3
2018-May-14 06:31N 24°13' E 118°18'5 8.4
2018-May-14 05:56N 24°08' E 118°19'0 0.4
2018-May-14 05:30N 24°09' E 118°19'0 0.5
2018-May-14 05:00N 24°09' E 118°19'0 0.3
2018-May-14 04:30N 24°09' E 118°19'0 0.2
2018-May-14 03:56N 24°09' E 118°19'1 1.4
2018-May-14 03:31N 24°09' E 118°19'4 7.6
2018-May-14 03:00N 24°10' E 118°24'612.5
2018-May-14 02:31N 24°09' E 118°30'612.6
2018-May-14 02:00N 24°07' E 118°37'712.6
2018-May-14 01:28N 24°04' E 118°44'612.6
2018-May-14 01:00N 24°03' E 118°50'712.7
2018-May-14 00:29N 24°01' E 118°57'612.6
2018-May-14 00:00N 23°59' E 119°03'612.4
2018-May-13 23:31N 23°58' E 119°10'1712.3
2018-May-13 22:10N 23°55' E 119°28'212.8
2018-May-13 22:00N 23°54' E 119°30'612.5
2018-May-13 21:30N 23°53' E 119°36'712.7
2018-May-13 21:00N 23°49' E 119°42'714.0
2018-May-13 20:30N 23°44' E 119°47'714.5
2018-May-13 20:00N 23°39' E 119°52'714.1
2018-May-13 19:31N 23°32' E 119°54'713.6
2018-May-13 19:00N 23°25' E 119°54'613.0
2018-May-13 18:30N 23°19' E 119°54'813.0
2018-May-13 17:56N 23°11' E 119°54'512.4
2018-May-13 17:30N 23°06' E 119°55'611.9
2018-May-13 17:00N 22°60' E 119°54'611.8
2018-May-13 16:28N 22°54' E 119°55'612.3
2018-May-13 16:00N 22°49' E 119°59'612.2
2018-May-13 15:30N 22°44' E 120°03'612.2
2018-May-13 15:00N 22°40' E 120°08'612.4
2018-May-13 14:30N 22°35' E 120°12'510.5
2018-May-13 14:00N 22°33' E 120°17'2 3.6
2018-May-13 13:28N 22°34' E 120°19'0 0.0
2018-May-13 12:58N 22°34' E 120°19'0 0.0
2018-May-13 12:28N 22°34' E 120°19'0 0.0
2018-May-13 11:58N 22°34' E 120°19'0 0.0
2018-May-13 11:28N 22°34' E 120°19'0 0.0
2018-May-13 10:58N 22°34' E 120°19'  
Track history (hours):
 
Tides and Currents Weather Stations Pressure Air Temp Water Temp Dewpoint Dewpoint Depression Visibility Wind Speed Wind Dir Waves Ship Positions

Seaspan Chiwan

Last reported at 2018-May-23 10:30 UTC. Time now 2018-May-27 17:45 UTC.
Position N 01°12' E 103°48'.

Date/timePositionNaut miles runAvg speedWind from/ knotsBaromVisibWave heightAir tempDewpointWater temp
2018-May-23 10:30N 01°12' E 103°48'3 6.4
2018-May-23 10:00N 01°15' E 103°47'0 0.8
2018-May-23 09:30N 01°15' E 103°47'0 0.0
2018-May-23 08:51N 01°15' E 103°47'0 0.0
2018-May-23 08:30N 01°15' E 103°47'0 0.0
2018-May-23 08:00N 01°15' E 103°47'0 0.0
2018-May-23 07:30N 01°15' E 103°47'0 0.0
2018-May-23 06:54N 01°15' E 103°47'0 0.0
2018-May-23 06:30N 01°15' E 103°47'0 0.0
2018-May-23 06:00N 01°15' E 103°47'0 0.0
2018-May-23 05:27N 01°15' E 103°47'0 0.0
2018-May-23 04:57N 01°15' E 103°47'0 0.0
2018-May-23 04:30N 01°15' E 103°47'0 0.0
2018-May-23 03:51N 01°15' E 103°47'0 0.0
2018-May-23 03:27N 01°15' E 103°47'0 0.0
2018-May-23 03:00N 01°15' E 103°47'0 0.0
2018-May-23 02:27N 01°15' E 103°47'0 0.0
2018-May-23 02:00N 01°15' E 103°47'0 0.0
2018-May-23 01:30N 01°15' E 103°47'0 0.0
2018-May-23 01:00N 01°15' E 103°47'0 0.0
2018-May-23 00:24N 01°15' E 103°47'0 0.0
2018-May-23 00:00N 01°15' E 103°47'0 0.0
2018-May-22 23:30N 01°15' E 103°47'0 0.0
2018-May-22 22:57N 01°15' E 103°47'0 0.0
2018-May-22 22:30N 01°15' E 103°47'0 0.0
2018-May-22 22:00N 01°15' E 103°47'0 0.0
2018-May-22 21:30N 01°15' E 103°47'0 0.0
2018-May-22 20:54N 01°15' E 103°47'0 0.0
2018-May-22 20:30N 01°15' E 103°47'0 0.0
2018-May-22 20:00N 01°15' E 103°47'0 0.0
2018-May-22 19:27N 01°15' E 103°47'0 0.0
2018-May-22 18:57N 01°15' E 103°47'0 0.0
2018-May-22 18:30N 01°15' E 103°47'0 0.1
2018-May-22 18:00N 01°15' E 103°47'0 1.0
2018-May-22 17:30N 01°15' E 103°48'1 1.1
2018-May-22 16:59N 01°15' E 103°47'3 7.0
2018-May-22 16:30N 01°15' E 103°44'4 8.8
2018-May-22 16:00N 01°12' E 103°40'4 7.5
2018-May-22 15:29N 01°12' E 103°36'5 9.1
2018-May-22 14:55N 01°11' E 103°32'3 6.7
2018-May-22 14:30N 01°10' E 103°29'1 0.6
2018-May-22 13:03N 01°10' E 103°30'0 4.3
2018-May-22 12:59N 01°10' E 103°30'44 1.0
2018-May-20 18:08N 01°37' E 102°55'615.1
2018-May-20 17:42N 01°33' E 103°01'314.8
2018-May-20 17:28N 01°31' E 103°03'714.9
2018-May-20 17:00N 01°26' E 103°09'715.1
2018-May-20 16:30N 01°22' E 103°15'714.5
2018-May-20 16:01N 01°18' E 103°21'713.8
2018-May-20 15:30N 01°14' E 103°26'715.2
2018-May-20 15:00N 01°12' E 103°34'714.2
2018-May-20 14:30N 01°11' E 103°41'612.3
2018-May-20 14:00N 01°10' E 103°47'815.6
2018-May-20 13:30N 01°13' E 103°54'713.6
2018-May-20 13:00N 01°15' E 104°00'816.1
2018-May-20 12:30N 01°16' E 104°08'815.7
2018-May-20 12:00N 01°18' E 104°16'816.5
2018-May-20 11:30N 01°22' E 104°23'915.9
2018-May-20 10:57N 01°28' E 104°30'715.7
2018-May-20 10:29N 01°32' E 104°35'  
2018-May-15 10:24N 22°44' E 116°40'512.7
2018-May-15 10:00N 22°47' E 116°45'1413.6
2018-May-15 08:58N 22°54' E 116°59'714.1
2018-May-15 08:30N 22°56' E 117°05'815.5
2018-May-15 08:00N 22°59' E 117°13'917.3
2018-May-15 07:29N 23°05' E 117°20'817.5
2018-May-15 07:00N 23°11' E 117°27'917.5
2018-May-15 06:30N 23°17' E 117°34'917.7
2018-May-15 06:00N 23°23' E 117°41'917.6
2018-May-15 05:30N 23°28' E 117°49'917.5
2018-May-15 05:00N 23°34' E 117°55'917.3
2018-May-15 04:30N 23°40' E 118°03'917.2
2018-May-15 04:00N 23°46' E 118°09'816.8
2018-May-15 03:30N 23°52' E 118°15'816.7
2018-May-15 03:00N 24°00' E 118°17'816.3
2018-May-15 02:30N 24°08' E 118°18'815.2
2018-May-15 02:00N 24°15' E 118°15'714.9
2018-May-15 01:30N 24°21' E 118°09'612.0
2018-May-15 01:01N 24°25' E 118°05'5 9.7
2018-May-15 00:29N 24°30' E 118°04'0 0.9
2018-May-14 23:59N 24°31' E 118°05'0 0.0
2018-May-14 23:26N 24°31' E 118°05'0 0.0
2018-May-14 22:59N 24°31' E 118°05'0 0.0
2018-May-14 22:29N 24°31' E 118°05'0 0.0
2018-May-14 21:59N 24°31' E 118°05'0 0.0
2018-May-14 21:29N 24°31' E 118°05'0 0.0
2018-May-14 20:59N 24°31' E 118°05'0 0.0
2018-May-14 20:29N 24°31' E 118°05'0 0.0
2018-May-14 19:59N 24°30' E 118°05'0 0.0
2018-May-14 19:29N 24°31' E 118°05'0 0.0
2018-May-14 18:59N 24°31' E 118°05'0 0.0
2018-May-14 18:26N 24°31' E 118°05'0 0.0
2018-May-14 17:59N 24°31' E 118°05'0 0.0
2018-May-14 17:29N 24°31' E 118°05'0 0.0
2018-May-14 16:59N 24°31' E 118°05'0 0.0
2018-May-14 16:29N 24°31' E 118°05'0 0.0
2018-May-14 15:56N 24°30' E 118°05'0 0.1
2018-May-14 15:29N 24°31' E 118°05'0 0.0
2018-May-14 14:59N 24°31' E 118°05'0 0.0
2018-May-14 14:29N 24°31' E 118°05'0 0.0
2018-May-14 13:59N 24°31' E 118°05'0 0.0
2018-May-14 13:29N 24°31' E 118°05'0 0.0
2018-May-14 12:53N 24°30' E 118°05'0 0.0
2018-May-14 12:29N 24°31' E 118°05'0 0.0
2018-May-14 11:53N 24°31' E 118°05'0 0.0
2018-May-14 11:29N 24°31' E 118°05'0 0.0
2018-May-14 10:59N 24°31' E 118°05'0 0.0
2018-May-14 10:29N 24°30' E 118°05'0 0.0
2018-May-14 09:59N 24°31' E 118°05'0 0.0
2018-May-14 09:29N 24°30' E 118°05'0 0.1
2018-May-14 08:59N 24°31' E 118°05'2 3.6
2018-May-14 08:30N 24°29' E 118°04'5 9.1
2018-May-14 08:00N 24°25' E 118°05'510.4
2018-May-14 07:30N 24°21' E 118°09'5 9.6
2018-May-14 07:01N 24°18' E 118°13'612.3
2018-May-14 06:31N 24°13' E 118°18'5 8.4
2018-May-14 05:56N 24°08' E 118°19'0 0.4
2018-May-14 05:30N 24°09' E 118°19'0 0.5
2018-May-14 05:00N 24°09' E 118°19'0 0.3
2018-May-14 04:30N 24°09' E 118°19'0 0.2
2018-May-14 03:56N 24°09' E 118°19'1 1.4
2018-May-14 03:31N 24°09' E 118°19'4 7.6
2018-May-14 03:00N 24°10' E 118°24'612.5
2018-May-14 02:31N 24°09' E 118°30'612.6
2018-May-14 02:00N 24°07' E 118°37'712.6
2018-May-14 01:28N 24°04' E 118°44'612.6
2018-May-14 01:00N 24°03' E 118°50'712.7
2018-May-14 00:29N 24°01' E 118°57'612.6
2018-May-14 00:00N 23°59' E 119°03'612.4
2018-May-13 23:31N 23°58' E 119°10'1712.3
2018-May-13 22:10N 23°55' E 119°28'212.8
2018-May-13 22:00N 23°54' E 119°30'612.5
2018-May-13 21:30N 23°53' E 119°36'712.7
2018-May-13 21:00N 23°49' E 119°42'714.0
2018-May-13 20:30N 23°44' E 119°47'714.5
2018-May-13 20:00N 23°39' E 119°52'714.1
2018-May-13 19:31N 23°32' E 119°54'713.6
2018-May-13 19:00N 23°25' E 119°54'613.0
2018-May-13 18:30N 23°19' E 119°54'813.0
2018-May-13 17:56N 23°11' E 119°54'512.4
2018-May-13 17:30N 23°06' E 119°55'611.9
2018-May-13 17:00N 22°60' E 119°54'611.8
2018-May-13 16:28N 22°54' E 119°55'612.3
2018-May-13 16:00N 22°49' E 119°59'612.2
2018-May-13 15:30N 22°44' E 120°03'612.2
2018-May-13 15:00N 22°40' E 120°08'612.4
2018-May-13 14:30N 22°35' E 120°12'510.5
2018-May-13 14:00N 22°33' E 120°17'2 3.6
2018-May-13 13:28N 22°34' E 120°19'0 0.0
2018-May-13 12:58N 22°34' E 120°19'0 0.0
2018-May-13 12:28N 22°34' E 120°19'0 0.0
2018-May-13 11:58N 22°34' E 120°19'0 0.0
2018-May-13 11:28N 22°34' E 120°19'0 0.0
2018-May-13 10:58N 22°34' E 120°19'  

Dump ship's entire track history